Time;durP1;ratioP1;P1;durP2;ratioP2;P2;SDS_P1;SDS_P2;PMS_P1;PMS_P2;Temp;Humidity;BMP_temperature;BMP_pressure;BME280_temperature;BME280_humidity;BME280_pressure;Samples;Min_cycle;Max_cycle;Signal;HPM_P1;HPM_P2
2022/11/21 00:00:03;;;;;;;;;;;;;;;20.89;49.77;100008.84;5079540;28;4124;-60
2022/11/21 00:02:29;;;;;;;;;;;;;;;20.89;49.86;100011.72;5085389;28;5338;-60
2022/11/21 00:04:56;;;;;;;;;;;;;;;20.87;49.69;100003.03;5089992;28;4092;-61
2022/11/21 00:07:23;;;;;;;;;;;;;;;20.87;49.81;100005.91;5074319;28;4223;-61
2022/11/21 00:09:49;;;;;;;;;;;;;;;20.88;49.81;99998.00;5091657;28;4215;-60
2022/11/21 00:12:15;;;;;;;;;;;;;;;20.87;49.77;99994.41;5081949;28;4252;-61
2022/11/21 00:14:42;;;;;;;;;;;;;;;20.86;49.80;99992.91;5079449;28;4021;-60
2022/11/21 00:17:08;;;;;;;;;;;;;;;20.86;49.83;99987.16;5076981;28;4021;-61
2022/11/21 00:19:35;;;;;;;;;;;;;;;20.86;49.78;99981.41;5077576;28;4291;-60
2022/11/21 00:22:01;;;;;;;;;;;;;;;20.86;49.92;99981.41;5077167;28;4233;-60
2022/11/21 00:24:27;;;;;;;;;;;;;;;20.86;49.88;99972.75;5073250;28;4107;-60
2022/11/21 00:26:54;;;;;;;;;;;;;;;20.85;49.74;99968.44;5078035;28;4180;-60
2022/11/21 00:29:20;;;;;;;;;;;;;;;20.87;49.71;99962.75;5053768;28;4141;-61
2022/11/21 00:31:47;;;;;;;;;;;;;;;20.88;49.66;99958.44;5073626;28;4215;-60
2022/11/21 00:34:15;;;;;;;;;;;;;;;20.89;49.69;99962.06;5076372;28;4146;-60
2022/11/21 00:36:41;;;;;;;;;;;;;;;20.88;49.94;99964.19;5072473;28;4104;-60
2022/11/21 00:39:08;;;;;;;;;;;;;;;20.88;49.90;99961.31;5073767;28;4132;-60
2022/11/21 00:41:34;;;;;;;;;;;;;;;20.88;49.77;99961.31;5073763;28;4131;-60
2022/11/21 00:44:00;;;;;;;;;;;;;;;20.88;49.76;99955.56;5074377;28;4525;-60
2022/11/21 00:46:26;;;;;;;;;;;;;;;20.87;49.72;99951.22;5067876;28;4131;-60
2022/11/21 00:48:53;;;;;;;;;;;;;;;20.86;49.86;99955.50;5080188;28;4350;-60
2022/11/21 00:51:19;;;;;;;;;;;;;;;20.87;49.70;99951.22;5076249;28;4243;-61
2022/11/21 00:53:46;;;;;;;;;;;;;;;20.86;49.67;99944.00;5077268;28;5266;-60
2022/11/21 00:56:12;;;;;;;;;;;;;;;20.85;49.68;99950.44;5076560;28;4014;-60
2022/11/21 00:58:39;;;;;;;;;;;;;;;20.84;49.71;99943.94;5074751;28;4641;-60
2022/11/21 01:01:06;;;;;;;;;;;;;;;20.85;49.61;99951.16;5078851;28;4313;-60
2022/11/21 01:03:33;;;;;;;;;;;;;;;20.86;49.47;99932.47;5069784;28;4182;-60
2022/11/21 01:06:00;;;;;;;;;;;;;;;20.86;49.73;99940.38;5072451;28;4496;-60
2022/11/21 01:08:26;;;;;;;;;;;;;;;20.86;49.66;99935.38;5076114;28;4124;-60
2022/11/21 01:10:52;;;;;;;;;;;;;;;20.87;49.86;99942.59;5082754;28;4349;-60
2022/11/21 01:13:19;;;;;;;;;;;;;;;20.86;49.82;99935.38;5075324;28;4166;-60
2022/11/21 01:15:45;;;;;;;;;;;;;;;20.86;49.80;99941.13;5076124;28;4176;-60
2022/11/21 01:18:11;;;;;;;;;;;;;;;20.87;49.65;99936.84;5061516;28;4160;-61
2022/11/21 01:20:39;;;;;;;;;;;;;;;20.87;49.61;99925.34;5076445;28;4173;-60
2022/11/21 01:23:05;;;;;;;;;;;;;;;20.86;49.79;99923.84;5071492;28;4029;-60
2022/11/21 01:25:34;;;;;;;;;;;;;;;20.86;49.79;99920.25;5079789;28;3974;-60
2022/11/21 01:28:01;;;;;;;;;;;;;;;20.85;49.70;99919.53;5081364;28;4178;-60
2022/11/21 01:30:27;;;;;;;;;;;;;;;20.83;49.75;99918.72;5074202;28;4164;-61
2022/11/21 01:32:53;;;;;;;;;;;;;;;20.85;49.85;99915.91;5076948;28;4120;-61
2022/11/21 01:35:19;;;;;;;;;;;;;;;20.83;49.88;99916.56;5078946;28;4128;-61
2022/11/21 01:37:47;;;;;;;;;;;;;;;20.83;49.96;99919.44;5073921;28;4297;-61
2022/11/21 01:40:13;;;;;;;;;;;;;;;20.83;49.97;99918.72;5083828;28;5251;-60
2022/11/21 01:42:47;;;;;;;;;;;;;;;20.83;49.83;99925.22;5077560;28;4205;-60
2022/11/21 01:45:33;;;;;;;;;;;;;;;20.85;49.85;99925.28;5081231;28;4507;-63
2022/11/21 01:47:59;;;;;;;;;;;;;;;20.85;49.57;99921.66;5082143;28;5365;-60
2022/11/21 01:50:25;;;;;;;;;;;;;;;20.85;49.81;99928.16;5076635;28;4013;-60
2022/11/21 01:52:52;;;;;;;;;;;;;;;20.85;49.59;99928.16;5089521;28;4175;-60
2022/11/21 01:55:18;;;;;;;;;;;;;;;20.88;49.81;99926.06;5077899;28;5272;-60
2022/11/21 01:57:44;;;;;;;;;;;;;;;20.87;49.79;99913.81;5072062;28;4236;-60
2022/11/21 02:00:33;;;;;;;;;;;;;;;20.85;49.74;99918.78;5068265;28;4184;-60
2022/11/21 02:03:01;;;;;;;;;;;;;;;20.85;49.85;99915.91;5071778;28;4328;-60
2022/11/21 02:05:28;;;;;;;;;;;;;;;20.84;49.68;99906.53;5080458;28;4446;-60
2022/11/21 02:07:55;;;;;;;;;;;;;;;20.84;49.72;99906.53;5086899;28;4196;-60
2022/11/21 02:10:22;;;;;;;;;;;;;;;20.82;49.68;99912.25;5082098;28;4172;-60
2022/11/21 02:12:52;;;;;;;;;;;;;;;20.81;49.58;99905.00;5081889;28;4057;-60
2022/11/21 02:15:18;;;;;;;;;;;;;;;20.81;49.78;99899.25;5079202;28;4355;-60
2022/11/21 02:17:44;;;;;;;;;;;;;;;20.82;49.93;99894.97;5077631;28;4197;-61
2022/11/21 02:20:11;;;;;;;;;;;;;;;20.82;49.60;99900.72;5082911;28;4033;-60
2022/11/21 02:22:44;;;;;;;;;;;;;;;20.82;49.58;99894.97;5082444;28;3951;-60
2022/11/21 02:25:14;;;;;;;;;;;;;;;20.83;49.63;99902.19;5086570;28;5289;-60
2022/11/21 02:27:40;;;;;;;;;;;;;;;20.84;49.75;99902.91;5066190;28;4501;-60
2022/11/21 02:30:07;;;;;;;;;;;;;;;20.84;49.64;99902.91;5081599;28;3978;-60
2022/11/21 02:32:35;;;;;;;;;;;;;;;20.84;49.52;99897.16;5066861;28;4126;-60
2022/11/21 02:35:02;;;;;;;;;;;;;;;20.84;49.89;99891.41;5081014;28;4277;-60
2022/11/21 02:37:28;;;;;;;;;;;;;;;20.83;49.73;99882.06;5072071;28;4355;-60
2022/11/21 02:39:55;;;;;;;;;;;;;;;20.83;49.62;99889.97;5050528;28;4192;-60
2022/11/21 02:42:29;;;;;;;;;;;;;;;20.82;49.75;99880.59;5081337;28;5160;-60
2022/11/21 02:45:04;;;;;;;;;;;;;;;20.82;49.79;99880.59;5067174;28;4078;-60
2022/11/21 02:47:30;;;;;;;;;;;;;;;20.82;49.78;99876.97;5068940;28;5429;-60
2022/11/21 02:49:59;;;;;;;;;;;;;;;20.81;49.72;99873.34;5073532;28;4187;-61
2022/11/21 02:52:25;;;;;;;;;;;;;;;20.81;49.80;99870.47;5067363;28;4226;-60
2022/11/21 02:54:51;;;;;;;;;;;;;;;20.80;49.73;99863.28;5088827;28;5237;-60
2022/11/21 02:57:18;;;;;;;;;;;;;;;20.79;49.78;99856.03;5082319;28;5308;-60
2022/11/21 02:59:44;;;;;;;;;;;;;;;20.79;49.60;99861.78;5091132;28;5500;-60
2022/11/21 03:02:10;;;;;;;;;;;;;;;20.80;49.64;99857.53;5085263;28;4189;-60
2022/11/21 03:04:37;;;;;;;;;;;;;;;20.79;49.82;99864.66;5086703;28;4363;-61
2022/11/21 03:07:03;;;;;;;;;;;;;;;20.80;49.50;99857.53;5079846;28;4182;-60
2022/11/21 03:09:29;;;;;;;;;;;;;;;20.80;49.66;99860.38;5076484;28;6589;-60
2022/11/21 03:11:56;;;;;;;;;;;;;;;20.81;49.71;99853.22;5080074;28;4176;-60
2022/11/21 03:14:22;;;;;;;;;;;;;;;20.81;49.74;99861.84;5074016;28;4204;-60
2022/11/21 03:16:48;;;;;;;;;;;;;;;20.81;49.55;99858.25;5076166;28;4155;-60
2022/11/21 03:19:15;;;;;;;;;;;;;;;20.79;49.67;99858.91;5074563;28;4189;-61
2022/11/21 03:21:41;;;;;;;;;;;;;;;20.80;49.79;99868.28;5079637;28;4184;-60
2022/11/21 03:24:13;;;;;;;;;;;;;;;20.79;49.84;99866.81;5078035;28;5255;-60
2022/11/21 03:26:40;;;;;;;;;;;;;;;20.78;49.85;99874.72;5074869;28;4137;-60
2022/11/21 03:29:06;;;;;;;;;;;;;;;20.77;49.75;99867.47;5077134;28;4202;-60
2022/11/21 03:31:32;;;;;;;;;;;;;;;20.78;49.80;99871.84;5076276;28;4174;-60
2022/11/21 03:33:59;;;;;;;;;;;;;;;20.78;49.54;99877.59;5077055;28;4175;-60
2022/11/21 03:36:25;;;;;;;;;;;;;;;20.77;49.79;99869.63;5074164;28;4127;-60
2022/11/21 03:38:53;;;;;;;;;;;;;;;20.79;49.77;99873.28;5082179;28;4196;-60
2022/11/21 03:41:28;;;;;;;;;;;;;;;20.79;49.65;99873.28;5082933;28;4178;-61
2022/11/21 03:43:58;;;;;;;;;;;;;;;20.81;49.50;99876.22;5074454;28;4230;-60
2022/11/21 03:46:24;;;;;;;;;;;;;;;20.82;49.72;99871.22;5072858;28;4092;-60
2022/11/21 03:48:51;;;;;;;;;;;;;;;20.81;49.75;99882.00;5081941;28;4244;-60
2022/11/21 03:51:17;;;;;;;;;;;;;;;20.83;49.80;99881.31;5075577;28;4132;-60
2022/11/21 03:53:44;;;;;;;;;;;;;;;20.84;49.76;99874.16;5081583;28;4180;-60
2022/11/21 03:56:10;;;;;;;;;;;;;;;20.83;49.76;99879.19;5079090;28;4240;-60
2022/11/21 03:58:36;;;;;;;;;;;;;;;20.83;49.73;99879.19;5080384;28;4889;-60
2022/11/21 04:01:03;;;;;;;;;;;;;;;20.83;49.65;99872.69;5078895;28;4180;-60
2022/11/21 04:03:29;;;;;;;;;;;;;;;20.83;49.69;99879.19;5072518;28;4174;-60
2022/11/21 04:05:55;;;;;;;;;;;;;;;20.84;49.63;99874.88;5075570;28;5508;-60
2022/11/21 04:08:22;;;;;;;;;;;;;;;20.84;49.65;99879.91;5078496;28;4272;-60
2022/11/21 04:10:48;;;;;;;;;;;;;;;20.84;49.56;99877.03;5082832;28;4190;-60
2022/11/21 04:13:15;;;;;;;;;;;;;;;20.84;49.60;99880.63;5078863;28;4173;-60
2022/11/21 04:15:41;;;;;;;;;;;;;;;20.83;49.66;99884.19;5074996;28;4207;-60
2022/11/21 04:18:07;;;;;;;;;;;;;;;20.84;49.63;99886.38;5074658;28;4145;-60
2022/11/21 04:20:34;;;;;;;;;;;;;;;20.83;49.59;99896.44;5072280;28;4172;-60
2022/11/21 04:23:00;;;;;;;;;;;;;;;20.82;49.70;99889.22;5078457;28;4093;-60
2022/11/21 04:25:26;;;;;;;;;;;;;;;20.83;49.50;99890.69;5077892;28;4157;-60
2022/11/21 04:27:59;;;;;;;;;;;;;;;20.82;49.57;99889.22;5077514;28;5411;-60
2022/11/21 04:30:25;;;;;;;;;;;;;;;20.82;49.65;99888.47;5077130;28;4324;-60
2022/11/21 04:32:52;;;;;;;;;;;;;;;20.81;49.40;99887.75;5079697;28;5365;-60
2022/11/21 04:35:18;;;;;;;;;;;;;;;20.81;49.62;99882.00;5078756;28;4180;-60
2022/11/21 04:37:44;;;;;;;;;;;;;;;20.82;49.57;99883.47;5082932;28;4227;-60
2022/11/21 04:40:11;;;;;;;;;;;;;;;20.83;49.56;99878.44;5085568;28;4160;-60
2022/11/21 04:42:40;;;;;;;;;;;;;;;20.83;49.53;99884.94;5081909;28;4120;-60
2022/11/21 04:45:07;;;;;;;;;;;;;;;20.84;49.53;99886.38;5077099;28;4194;-60
2022/11/21 04:47:36;;;;;;;;;;;;;;;20.84;49.44;99892.13;5081805;28;4171;-60
2022/11/21 04:50:03;;;;;;;;;;;;;;;20.83;49.35;99896.44;5083345;28;4009;-60
2022/11/21 04:52:29;;;;;;;;;;;;;;;20.84;49.40;99897.16;5078951;28;3964;-60
2022/11/21 04:54:55;;;;;;;;;;;;;;;20.86;49.56;99895.06;5085032;28;4172;-60
2022/11/21 04:57:22;;;;;;;;;;;;;;;20.85;49.59;99893.63;5081068;28;4144;-60
2022/11/21 04:59:48;;;;;;;;;;;;;;;20.85;49.33;99887.88;5079637;28;5141;-60
2022/11/21 05:02:14;;;;;;;;;;;;;;;20.86;49.43;99895.06;5073242;28;5220;-60
2022/11/21 05:04:41;;;;;;;;;;;;;;;20.85;49.46;99890.75;5077906;28;4147;-60
2022/11/21 05:07:07;;;;;;;;;;;;;;;20.85;49.53;99892.91;5080575;28;5415;-60
2022/11/21 05:09:34;;;;;;;;;;;;;;;20.85;49.51;99892.91;5072194;28;5204;-60
2022/11/21 05:14:45;;;;;;;;;;;;;;;20.83;49.39;99895.72;5065905;28;3992;-60
2022/11/21 05:17:11;;;;;;;;;;;;;;;20.84;49.50;99903.66;5070477;28;5073;-60
2022/11/21 05:19:38;;;;;;;;;;;;;;;20.84;49.55;99900.78;5079324;28;4156;-60
2022/11/21 05:22:04;;;;;;;;;;;;;;;20.83;49.41;99896.44;5084931;28;5476;-60
2022/11/21 05:24:30;;;;;;;;;;;;;;;20.83;49.51;99902.19;5083548;28;4177;-60
2022/11/21 05:26:56;;;;;;;;;;;;;;;20.84;49.51;99897.91;5079328;28;5242;-60
2022/11/21 05:29:23;;;;;;;;;;;;;;;20.84;49.51;99897.91;5082072;28;4179;-60
2022/11/21 05:31:53;;;;;;;;;;;;;;;20.86;49.36;99906.59;5075651;28;4244;-59
2022/11/21 05:34:19;;;;;;;;;;;;;;;20.86;49.26;99905.84;5074976;28;4151;-60
2022/11/21 05:36:46;;;;;;;;;;;;;;;20.87;49.31;99913.81;5074008;28;4286;-60
2022/11/21 05:39:13;;;;;;;;;;;;;;;20.86;49.36;99909.47;5076898;28;4528;-60
2022/11/21 05:41:39;;;;;;;;;;;;;;;20.87;49.22;99910.22;5077229;28;4124;-60
2022/11/21 05:44:06;;;;;;;;;;;;;;;20.87;49.54;99913.81;5075828;28;4115;-60
2022/11/21 05:46:32;;;;;;;;;;;;;;;20.87;49.44;99899.44;5085708;28;4234;-60
2022/11/21 05:48:58;;;;;;;;;;;;;;;20.85;49.44;99905.13;5072686;28;4278;-60
2022/11/21 05:51:25;;;;;;;;;;;;;;;20.86;49.58;99894.34;5084091;28;5333;-60
2022/11/21 05:53:51;;;;;;;;;;;;;;;20.83;49.61;99896.44;5075062;28;5236;-60
2022/11/21 05:56:17;;;;;;;;;;;;;;;20.90;49.72;99900.97;5063147;28;4036;-64
2022/11/21 05:58:44;;;;;;;;;;;;;;;20.77;49.07;99898.41;5062527;28;4481;-59
2022/11/21 06:01:10;;;;;;;;;;;;;;;20.78;49.15;99894.84;5074623;28;4007;-59
2022/11/21 06:03:37;;;;;;;;;;;;;;;20.83;49.99;99902.19;5066752;28;4163;-60
2022/11/21 06:06:07;;;;;;;;;;;;;;;20.87;50.27;99902.31;5073687;28;4190;-59
2022/11/21 06:08:34;;;;;;;;;;;;;;;20.89;50.08;99901.63;5075885;28;4114;-59
2022/11/21 06:11:00;;;;;;;;;;;;;;;20.88;50.48;99909.53;5077455;28;4153;-59
2022/11/21 06:13:27;;;;;;;;;;;;;;;20.97;50.50;99895.38;5072020;28;5224;-58
2022/11/21 06:16:00;;;;;;;;;;;;;;;20.95;51.60;99907.56;5069156;28;5220;-59
2022/11/21 06:18:26;;;;;;;;;;;;;;;20.90;51.22;99912.47;5068683;28;4163;-59
2022/11/21 06:20:53;;;;;;;;;;;;;;;20.90;50.94;99909.59;5085728;27;5342;-58
2022/11/21 06:23:19;;;;;;;;;;;;;;;20.92;51.65;99903.91;5090848;28;4153;-58
2022/11/21 06:25:46;;;;;;;;;;;;;;;20.90;51.79;99906.72;5090422;28;4013;-59
2022/11/21 06:28:12;;;;;;;;;;;;;;;20.90;51.32;99903.84;5090538;28;4187;-58
2022/11/21 06:30:38;;;;;;;;;;;;;;;20.91;51.43;99908.19;5086903;28;5142;-59
2022/11/21 06:33:05;;;;;;;;;;;;;;;20.92;51.51;99903.91;5093238;28;4191;-58
2022/11/21 06:35:31;;;;;;;;;;;;;;;20.93;51.65;99913.97;5092865;28;5177;-58
2022/11/21 06:37:57;;;;;;;;;;;;;;;20.92;52.22;99915.41;5088299;28;4020;-59
2022/11/21 06:40:24;;;;;;;;;;;;;;;20.89;52.33;99905.25;5092174;28;4193;-58
2022/11/21 06:42:50;;;;;;;;;;;;;;;20.88;52.08;99909.53;5088588;28;4035;-58
2022/11/21 06:45:17;;;;;;;;;;;;;;;20.87;51.96;99910.94;5093080;28;4113;-59
2022/11/21 06:47:43;;;;;;;;;;;;;;;20.90;51.34;99914.63;5091730;28;4180;-58
2022/11/21 06:50:09;;;;;;;;;;;;;;;20.91;51.90;99919.69;5086684;28;4323;-57
2022/11/21 06:52:36;;;;;;;;;;;;;;;20.73;49.63;99924.16;5092862;28;4302;-57
2022/11/21 06:55:02;;;;;;;;;;;;;;;7.26;50.37;99932.19;5087245;28;5330;-58
2022/11/21 06:57:28;;;;;;;;;;;;;;;12.84;47.07;99934.44;5084724;28;4127;-65
2022/11/21 06:59:55;;;;;;;;;;;;;;;17.26;50.05;99933.56;5068296;28;4136;-77
2022/11/21 07:02:22;;;;;;;;;;;;;;;19.01;45.88;99933.50;5082495;28;4445;-74
2022/11/21 07:04:48;;;;;;;;;;;;;;;19.76;45.92;99940.47;5086504;28;4108;-72
2022/11/21 07:07:14;;;;;;;;;;;;;;;20.07;45.71;99953.72;5084843;28;5031;-76
2022/11/21 07:09:43;;;;;;;;;;;;;;;20.28;46.39;99949.38;5088363;28;4413;-72
2022/11/21 07:14:54;;;;;;;;;;;;;;;20.57;47.34;99961.78;5088980;28;4532;-76
2022/11/21 07:17:21;;;;;;;;;;;;;;;20.66;47.70;99958.53;5082085;28;4363;-76
2022/11/21 07:19:47;;;;;;;;;;;;;;;20.74;47.97;99957.28;5084413;28;4037;-75
2022/11/21 07:22:13;;;;;;;;;;;;;;;20.84;48.07;99961.19;5078026;28;4310;-71
2022/11/21 07:24:40;;;;;;;;;;;;;;;20.89;47.65;99965.69;5081228;28;5358;-73
2022/11/21 07:27:06;;;;;;;;;;;;;;;20.94;48.35;99975.16;5080093;28;4102;-74
2022/11/21 07:29:32;;;;;;;;;;;;;;;20.99;48.01;99976.75;5077414;28;4133;-79
2022/11/21 07:32:07;;;;;;;;;;;;;;;21.05;48.12;99979.06;5081606;28;4227;-82
2022/11/21 07:34:34;;;;;;;;;;;;;;;21.07;47.74;99982.75;5071752;28;4377;-76
2022/11/21 07:37:00;;;;;;;;;;;;;;;21.12;48.27;99978.59;5077106;28;4223;-75
2022/11/21 07:39:30;;;;;;;;;;;;;;;21.16;48.28;99977.22;5070697;28;4183;-75
2022/11/21 07:41:56;;;;;;;;;;;;;;;21.21;48.10;99985.31;5064313;28;4234;-78
2022/11/21 07:44:23;;;;;;;;;;;;;;;21.28;48.35;99980.44;5083038;28;4085;-75
2022/11/21 07:46:52;;;;;;;;;;;;;;;21.31;48.10;99985.59;5075543;28;5266;-75
2022/11/21 07:49:19;;;;;;;;;;;;;;;21.34;47.82;99978.47;5077199;28;5219;-74
2022/11/21 07:51:45;;;;;;;;;;;;;;;21.36;47.76;99989.34;5074700;28;4153;-74
2022/11/21 07:54:11;;;;;;;;;;;;;;;21.38;47.63;99983.63;5092635;28;4187;-71
2022/11/21 07:56:38;;;;;;;;;;;;;;;21.42;47.72;99997.44;5084427;28;4094;-71
2022/11/21 07:59:04;;;;;;;;;;;;;;;21.43;47.58;99988.13;5070837;28;6769;-74
2022/11/21 08:01:30;;;;;;;;;;;;;;;21.50;47.59;99995.50;5081421;28;5475;-72
2022/11/21 08:03:57;;;;;;;;;;;;;;;21.72;47.34;99983.16;5086424;28;4631;-73
2022/11/21 08:06:23;;;;;;;;;;;;;;;21.87;47.82;99993.63;5080377;28;4177;-71
2022/11/21 08:08:53;;;;;;;;;;;;;;;21.99;47.33;99993.22;5072708;28;4297;-71
2022/11/21 08:11:19;;;;;;;;;;;;;;;22.05;47.00;99996.25;5078380;28;4140;-70
2022/11/21 08:13:45;;;;;;;;;;;;;;;22.05;45.94;100002.00;5078852;28;5332;-72
2022/11/21 08:16:12;;;;;;;;;;;;;;;21.92;45.29;100011.75;5082580;28;4112;-71
2022/11/21 08:18:38;;;;;;;;;;;;;;;21.81;44.31;100013.66;5071033;28;4441;-72
2022/11/21 08:21:04;;;;;;;;;;;;;;;21.67;43.02;100005.34;5082706;28;4336;-74
2022/11/21 08:23:31;;;;;;;;;;;;;;;21.54;42.08;100010.03;5080323;28;4146;-74
2022/11/21 08:25:57;;;;;;;;;;;;;;;21.57;41.88;100013.69;5080525;28;4209;-72
2022/11/21 08:28:24;;;;;;;;;;;;;;;21.72;41.84;100014.84;5077178;28;4181;-76
2022/11/21 08:30:50;;;;;;;;;;;;;;;21.83;42.31;100021.59;5080211;28;4305;-72
2022/11/21 08:33:16;;;;;;;;;;;;;;;21.99;42.82;100027.81;5074644;28;4148;-71
2022/11/21 08:35:43;;;;;;;;;;;;;;;22.02;42.52;100031.47;5074376;28;5263;-68
2022/11/21 08:38:09;;;;;;;;;;;;;;;22.04;42.72;100034.41;5074244;28;5463;-71
2022/11/21 08:40:35;;;;;;;;;;;;;;;22.04;43.38;100040.91;5078535;28;4099;-73
2022/11/21 08:43:05;;;;;;;;;;;;;;;22.06;43.45;100038.09;5075570;28;5223;-71
2022/11/21 08:45:32;;;;;;;;;;;;;;;21.92;43.61;100040.56;5083790;28;4395;-69
2022/11/21 08:47:59;;;;;;;;;;;;;;;21.80;43.59;100043.88;5081918;28;4217;-68
2022/11/21 08:50:26;;;;;;;;;;;;;;;21.40;42.97;100041.31;5082148;28;4187;-70
2022/11/21 08:52:57;;;;;;;;;;;;;;;21.32;42.74;100041.78;5071209;28;5264;-69
2022/11/21 08:55:24;;;;;;;;;;;;;;;21.36;42.78;100035.41;5080473;28;4511;-66
2022/11/21 08:57:50;;;;;;;;;;;;;;;21.27;42.37;100048.81;5076241;28;4045;-66
2022/11/21 09:00:16;;;;;;;;;;;;;;;21.30;43.36;100038.09;5087903;28;4187;-67
2022/11/21 09:02:43;;;;;;;;;;;;;;;21.39;43.91;100053.47;5088623;28;6231;-67
2022/11/21 09:05:10;;;;;;;;;;;;;;;21.47;43.51;100048.72;5083147;28;4157;-66
2022/11/21 09:07:36;;;;;;;;;;;;;;;21.49;43.87;100048.78;5081660;28;4166;-67
2022/11/21 09:10:02;;;;;;;;;;;;;;;21.50;44.15;100043.75;5083414;28;4185;-67
2022/11/21 09:12:29;;;;;;;;;;;;;;;21.49;44.65;100039.41;5085572;28;4101;-68
2022/11/21 09:20:25;;;;;;;;;;;;;;;21.52;44.93;100041.66;5097095;28;4867;-67
2022/11/21 09:22:52;;;;;;;;;;;;;;;21.53;44.99;100042.38;5095573;28;4026;-67
2022/11/21 09:25:18;;;;;;;;;;;;;;;21.54;45.26;100049.63;5094273;28;4288;-67
2022/11/21 09:27:44;;;;;;;;;;;;;;;21.55;45.32;100051.09;5097366;28;4012;-67
2022/11/21 09:30:12;;;;;;;;;;;;;;;21.53;45.35;100051.78;5090481;28;4722;-67
2022/11/21 09:32:39;;;;;;;;;;;;;;;21.54;45.32;100050.34;5096746;28;4438;-67
2022/11/21 09:35:05;;;;;;;;;;;;;;;21.55;45.49;100051.09;5087285;28;3988;-67
2022/11/21 09:37:38;;;;;;;;;;;;;;;21.54;45.48;100043.88;5090309;28;5384;-67
2022/11/21 09:40:04;;;;;;;;;;;;;;;21.51;45.45;100042.34;5084105;28;4114;-66
2022/11/21 09:42:42;;;;;;;;;;;;;;;21.57;45.66;100051.16;5072930;28;4081;-68
2022/11/21 09:45:10;;;;;;;;;;;;;;;21.74;45.75;100053.09;5065100;28;5218;-66
2022/11/21 09:47:37;;;;;;;;;;;;;;;21.82;45.83;100049.69;5085027;28;5274;-67
2022/11/21 09:50:05;;;;;;;;;;;;;;;21.88;45.66;100057.78;5062149;28;5546;-68
2022/11/21 09:52:38;;;;;;;;;;;;;;;21.91;45.52;100062.19;5082846;28;4422;-68
2022/11/21 09:55:23;;;;;;;;;;;;;;;21.93;45.79;100068.00;5061497;28;5129;-70
2022/11/21 09:57:49;;;;;;;;;;;;;;;21.79;45.53;100062.56;5065232;28;4102;-71
2022/11/21 10:00:20;;;;;;;;;;;;;;;21.62;44.80;100067.13;5064553;28;5194;-70
2022/11/21 10:02:46;;;;;;;;;;;;;;;21.58;43.36;100072.81;5074459;28;5246;-70
2022/11/21 10:05:12;;;;;;;;;;;;;;;21.63;42.50;100074.38;5076414;28;5442;-67
2022/11/21 10:07:39;;;;;;;;;;;;;;;21.83;42.30;100073.47;5091996;28;5199;-66
2022/11/21 10:10:16;;;;;;;;;;;;;;;21.97;42.70;100076.75;5067832;28;4135;-66
2022/11/21 10:12:47;;;;;;;;;;;;;;;22.03;43.37;100084.84;5059878;28;4148;-66
2022/11/21 10:15:13;;;;;;;;;;;;;;;22.06;43.80;100084.22;5065121;28;4205;-66
2022/11/21 10:17:39;;;;;;;;;;;;;;;22.13;44.13;100076.47;5080200;28;4177;-68
2022/11/21 10:20:09;;;;;;;;;;;;;;;22.08;43.76;100092.16;5084836;28;4174;-69
2022/11/21 10:22:39;;;;;;;;;;;;;;;22.09;43.67;100100.16;5093596;28;4089;-68
2022/11/21 10:25:13;;;;;;;;;;;;;;;22.13;43.88;100102.41;5080694;28;4139;-67
2022/11/21 10:27:42;;;;;;;;;;;;;;;22.14;44.32;100092.34;5087425;28;4038;-67
2022/11/21 10:30:18;;;;;;;;;;;;;;;21.90;41.95;100089.53;5076101;28;4147;-66
2022/11/21 10:32:48;;;;;;;;;;;;;;;21.89;40.23;100097.44;5084650;28;5149;-65
2022/11/21 10:35:24;;;;;;;;;;;;;;;21.97;41.89;100082.53;5061745;28;4085;-67
2022/11/21 10:37:51;;;;;;;;;;;;;;;22.09;42.79;100094.38;5081153;28;4331;-66
2022/11/21 10:40:20;;;;;;;;;;;;;;;22.13;43.20;100100.25;5081590;28;5340;-65
2022/11/21 10:42:51;;;;;;;;;;;;;;;22.15;43.90;100097.44;5072942;28;4573;-65
2022/11/21 10:45:18;;;;;;;;;;;;;;;22.16;44.53;100104.66;5073746;28;4273;-66
2022/11/21 10:47:46;;;;;;;;;;;;;;;22.21;44.38;100096.88;5081016;28;4030;-67
2022/11/21 10:50:30;;;;;;;;;;;;;;;22.20;44.70;100114.84;5089523;28;5446;-67
2022/11/21 10:56:03;;;;;;;;;;;;;;;22.04;45.30;100101.47;5082142;28;5447;-67
2022/11/21 10:58:39;;;;;;;;;;;;;;;22.00;45.07;100101.34;5059745;28;4356;-66
2022/11/21 11:01:05;;;;;;;;;;;;;;;22.13;45.13;100111.78;5072219;28;3997;-66
2022/11/21 11:03:31;;;;;;;;;;;;;;;22.23;45.10;100107.75;5057359;28;4178;-67
2022/11/21 11:05:58;;;;;;;;;;;;;;;22.27;45.10;100102.09;5075072;28;4012;-68
2022/11/21 11:08:26;;;;;;;;;;;;;;;22.31;44.87;100110.84;5077243;28;4165;-67
2022/11/21 11:11:01;;;;;;;;;;;;;;;22.31;45.04;100110.84;5078964;28;4190;-67
2022/11/21 11:16:14;;;;;;;;;;;;;;;22.33;45.04;100105.13;5065695;28;4182;-68
2022/11/21 11:18:44;;;;;;;;;;;;;;;22.32;45.52;100103.66;5076590;28;5449;-68
2022/11/21 11:21:16;;;;;;;;;;;;;;;22.25;45.40;100107.81;5078627;28;3990;-64
2022/11/21 11:23:43;;;;;;;;;;;;;;;22.25;45.83;100104.91;5082476;28;4014;-66
2022/11/21 11:26:18;;;;;;;;;;;;;;;22.33;45.75;100108.00;5079028;28;4176;-67
2022/11/21 11:28:45;;;;;;;;;;;;;;;22.32;45.84;100110.16;5080010;28;4152;-67
2022/11/21 11:31:11;;;;;;;;;;;;;;;22.37;45.77;100111.72;5080869;28;3909;-66
2022/11/21 11:33:38;;;;;;;;;;;;;;;22.35;45.91;100097.25;5070221;28;5464;-66
2022/11/21 11:36:08;;;;;;;;;;;;;;;22.38;45.91;100092.28;5066220;28;5457;-66
2022/11/21 11:38:35;;;;;;;;;;;;;;;22.37;46.17;100099.47;5072732;28;5254;-67
2022/11/21 11:41:03;;;;;;;;;;;;;;;22.39;46.26;100099.50;5079378;28;4123;-66
2022/11/21 11:47:29;;;;;;;;;;;;;;;22.23;46.50;100110.63;5075849;28;4196;-66
2022/11/21 11:52:19;;;;;;;;;;;;;;;22.12;46.46;100104.53;5064543;28;5576;-67
2022/11/21 11:54:50;;;;;;;;;;;;;;;22.26;46.65;100101.34;5071274;28;4737;-69
2022/11/21 11:57:16;;;;;;;;;;;;;;;22.22;46.02;100106.25;5065453;28;5154;-68
2022/11/21 11:59:46;;;;;;;;;;;;;;;22.21;46.20;100104.78;5078879;28;4346;-68
2022/11/21 12:02:15;;;;;;;;;;;;;;;22.18;46.21;100101.84;5057526;28;4244;-68
2022/11/21 12:04:52;;;;;;;;;;;;;;;22.20;46.35;100106.94;5080162;28;4672;-69
2022/11/21 12:07:19;;;;;;;;;;;;;;;22.16;46.05;100107.53;5071911;28;4163;-69
2022/11/21 12:10:05;;;;;;;;;;;;;;;22.22;45.92;100103.38;5082007;28;4090;-66
2022/11/21 12:12:35;;;;;;;;;;;;;;;22.10;46.15;100095.84;5086116;28;4366;-69
2022/11/21 12:18:04;;;;;;;;;;;;;;;22.13;46.42;100099.53;5088671;28;4043;-66
2022/11/21 12:20:49;;;;;;;;;;;;;;;22.14;45.93;100098.84;5093243;28;4057;-67
2022/11/21 12:23:16;;;;;;;;;;;;;;;22.16;46.26;100096.00;5091343;28;4190;-67
2022/11/21 12:25:52;;;;;;;;;;;;;;;22.19;46.24;100091.03;5080365;28;4603;-67
2022/11/21 12:28:22;;;;;;;;;;;;;;;22.20;46.45;100086.00;5091393;28;4120;-68
2022/11/21 12:30:52;;;;;;;;;;;;;;;21.98;46.78;100086.88;5069265;28;4137;-68
2022/11/21 12:33:20;;;;;;;;;;;;;;;21.97;46.75;100088.28;5065942;28;4867;-72
2022/11/21 12:36:12;;;;;;;;;;;;;;;21.90;46.94;100086.66;5090111;27;5214;-69
2022/11/21 12:38:45;;;;;;;;;;;;;;;22.09;46.72;100082.84;5079053;28;4107;-68
2022/11/21 12:44:22;;;;;;;;;;;;;;;22.35;45.52;100076.31;5083072;28;4003;-68
2022/11/21 12:47:00;;;;;;;;;;;;;;;22.38;45.86;100077.88;5066486;28;3938;-67
2022/11/21 12:55:08;;;;;;;;;;;;;;;22.24;46.36;100057.28;5085892;28;4222;-66
2022/11/21 12:57:47;;;;;;;;;;;;;;;22.23;46.29;100067.38;5066164;28;3966;-68
2022/11/21 13:00:14;;;;;;;;;;;;;;;22.24;46.24;100057.28;5071596;28;4127;-67
2022/11/21 13:02:59;;;;;;;;;;;;;;;22.26;46.02;100054.47;5074964;28;4098;-66
2022/11/21 13:05:26;;;;;;;;;;;;;;;22.25;46.08;100053.75;5082078;28;4156;-66
2022/11/21 13:07:54;;;;;;;;;;;;;;;22.24;46.09;100057.28;5068021;28;4034;-68
2022/11/21 13:10:20;;;;;;;;;;;;;;;22.04;46.43;100051.72;5083420;28;5209;-68
2022/11/21 13:12:55;;;;;;;;;;;;;;;22.05;46.74;100053.19;5064582;28;4014;-67
2022/11/21 13:15:28;;;;;;;;;;;;;;;22.08;46.97;100052.56;5071969;28;4138;-68
2022/11/21 13:18:02;;;;;;;;;;;;;;;22.09;46.83;100044.63;5062003;28;4205;-68
2022/11/21 13:20:37;;;;;;;;;;;;;;;22.11;46.70;100050.47;5064896;28;4229;-68
2022/11/21 13:23:05;;;;;;;;;;;;;;;22.10;46.60;100067.00;5058438;28;4233;-71
2022/11/21 13:25:32;;;;;;;;;;;;;;;22.10;46.82;100060.50;5064736;28;4120;-70
2022/11/21 13:28:17;;;;;;;;;;;;;;;22.09;46.48;100047.53;5077503;28;4173;-69
2022/11/21 13:30:47;;;;;;;;;;;;;;;22.05;46.61;100048.13;5069855;28;5027;-71